Terminal Aerodrome Forecast
Issued by NWS Wilmington, NC

Home | Current Version | Previous Version | Text Only | Print | Product List | Glossary On
Versions: 1 2 3 4 5 6 7 8 9 10 11 12 13
000
FTUS42 KILM 192300
TAFILM
TAF
KILM 192321Z 2000/2024 VRB02KT P6SM BKN200
     FM200900 03004KT P6SM BKN120
     FM201300 04006KT P6SM -RA BKN040 OVC100
     FM201700 02008KT 6SM -RA BKN020 OVC040=

USA.gov is the U.S. government's official web portal to all federal, state and local government web resources and services.